Flight Track Log - Related Links

Times and Time Zones

All times are in EDT time to prevent confusion due to time zone crossing. See the C-GRJR flight status page for this flight to view local times or setup timezone preferences in your user account.

Time Position Orientation Groundspeed Altitude Reporting Facility
EDT Latitude Longitude Course Direction KTS MPH feet Rate Location/Type
Wed 03:55:06 PM 26.2622 -81.7903 North 153 176 6,000  Level Miami Center
Wed 03:56:09 PM 26.3056 -81.7950 354° North 156 180 8,100 1,824 Climbing Miami Center
Wed 03:57:11 PM 26.3567 -81.7939 North 167 192 9,800 1,597 Climbing Miami Center
Wed 03:58:13 PM 26.4081 -81.7872 North 186 214 11,400 1,806 Climbing Miami Center
Wed 03:59:00 PM 26.9876 -81.6145 24° Northeast  Level FlightAware Approximate
Wed 04:00:00 PM 27.0856 -81.5914 North  Level FlightAware Approximate
Wed 04:00:00 PM 26.5799 -81.7471 11° North  Level FlightAware Approximate
Wed 04:00:17 PM 26.5125 -81.7697 11° North 192 221 15,400  Level Miami Center
Wed 04:01:19 PM 26.5817 -81.7558 10° North 209 241 17,600 1,661 Climbing Miami Center
Wed 04:06:29 PM 26.9111 -81.6858 12° North 254 292 25,700 1,562 Climbing Miami Center
Wed 04:08:33 PM 27.0781 -81.6503 13° North 270 311 28,900 1,147 Climbing Miami Center
Wed 04:13:43 PM 27.4847 -81.6158 12° North 293 337 34,000 968 Climbing Miami Center
Wed 04:14:45 PM 27.5697 -81.6131 North 295 339 34,900 823 Climbing Miami Center
Wed 04:15:47 PM 27.6564 -81.6092 North 295 339 35,700 720 Climbing Miami Center
Wed 04:16:50 PM 27.7433 -81.6064 North 295 339 36,400 624 Climbing Miami Center
Wed 04:17:00 PM 27.8550 -81.4790 10° North  Level FlightAware Approximate
Wed 04:17:52 PM 27.8267 -81.6031 North 294 338 37,000  Level Miami Center
Wed 04:18:00 PM 27.9543 -81.4580 12° North  Level FlightAware Approximate
Wed 04:18:54 PM 27.9108 -81.6000 North 301 346 37,000  Level Miami Center
Wed 04:20:58 PM 28.1006 -81.5931 36° Northeast 346 398 37,000  Level Miami Center
Wed 04:23:02 PM 28.3078 -81.5850 North 373 429 37,000  Level Miami Center
Wed 04:24:04 PM 28.4378 -81.5811 North 385 443 37,000  Level Miami Center
Wed 04:25:07 PM 28.5475 -81.5778 North 389 448 37,000  Level Miami Center
Wed 04:28:15 PM 28.8903 -81.5647 North 398 458 37,000  Level Jacksonville Center
Wed 04:31:20 PM 29.2267 -81.5531 North 403 464 37,000  Level Miami Center
Wed 04:33:24 PM 29.4683 -81.5433 North 402 463 37,000  Level Miami Center
Wed 04:34:15 PM 29.5600 -81.5436 360° North 399 459 37,000  Level Jacksonville Center
Wed 04:35:15 PM 29.6706 -81.5372 North 399 459 37,000  Level Jacksonville Center
Wed 04:36:15 PM 29.7811 -81.5261 North 399 459 37,000  Level Jacksonville Center
Wed 04:37:15 PM 29.8897 -81.5294 358° North 394 453 37,000  Level Jacksonville Center
Wed 04:38:15 PM 29.9961 -81.5231 North 389 448 37,000  Level Jacksonville Center
Wed 04:41:15 PM 30.3300 -81.5111 North 384 442 37,000  Level Jacksonville Center
Wed 04:42:15 PM 30.4406 -81.4975 North 384 442 37,000  Level Jacksonville Center
Wed 04:43:15 PM 30.5489 -81.4839 North 384 442 37,000  Level Jacksonville Center
Wed 04:44:15 PM 30.6575 -81.4725 North 384 442 37,000  Level Jacksonville Center
Wed 04:47:15 PM 30.9786 -81.4386 North 384 442 37,000  Level Jacksonville Center
Wed 04:48:15 PM 31.0850 -81.4275 North 384 442 37,000  Level Jacksonville Center
Wed 04:49:15 PM 31.1933 -81.4158 North 384 442 37,000  Level Jacksonville Center
Wed 04:50:15 PM 31.2975 -81.4047 North 384 442 37,000  Level Jacksonville Center
Wed 04:51:15 PM 31.3936 -81.3908 North 384 442 37,000  Level Jacksonville Center
Wed 04:52:15 PM 31.5081 -81.3792 North 384 442 37,000  Level Jacksonville Center
Wed 04:53:15 PM 31.6019 -81.3681 North 379 436 37,000  Level Jacksonville Center
Wed 04:54:15 PM 31.7167 -81.3564 North 379 436 37,000  Level Jacksonville Center
Wed 04:55:15 PM 31.8208 -81.3450 North 374 430 37,000  Level Jacksonville Center
Wed 04:56:15 PM 31.9294 -81.3333 North 369 425 37,000  Level Jacksonville Center
Wed 04:58:15 PM 32.1378 -81.3075 North 374 430 37,000  Level Jacksonville Center
Wed 05:01:15 PM 32.4547 -81.2750 North 374 430 37,000  Level Jacksonville Center
Wed 05:02:15 PM 32.5464 -81.2636 North 374 430 37,000  Level Jacksonville Center
Wed 05:03:15 PM 32.6631 -81.2442 North 374 430 37,000  Level Jacksonville Center
Wed 05:04:15 PM 32.7567 -81.2253 10° North 369 425 37,000  Level Jacksonville Center
Wed 05:07:15 PM 33.0714 -81.1722 North 369 425 37,000  Level Jacksonville Center
Wed 05:08:15 PM 33.1775 -81.1553 North 374 430 37,000  Level Jacksonville Center
Wed 05:09:15 PM 33.2836 -81.1358 North 379 436 37,000  Level Jacksonville Center
Wed 05:10:15 PM 33.3878 -81.1189 North 379 436 37,000  Level Jacksonville Center
Wed 05:11:15 PM 33.4939 -81.1019 North 379 436 37,000  Level Jacksonville Center
Wed 05:13:15 PM 33.7064 -81.0650 North 379 436 37,000  Level Jacksonville Center
Wed 05:14:15 PM 33.8125 -81.0428 10° North 384 442 37,000  Level Jacksonville Center
Wed 05:16:32 PM 34.0614 -80.9997 North 381 438 37,000  Level Atlanta Center
Wed 05:18:32 PM 34.2650 -80.9622 North 376 433 37,000  Level Atlanta Center
Wed 05:19:32 PM 34.3689 -80.9458 North 376 433 37,000  Level Atlanta Center
Wed 05:21:32 PM 34.5747 -80.9131 11° North 370 426 37,000  Level Atlanta Center
Wed 05:24:32 PM 34.8819 -80.8561 North 370 426 37,000  Level Atlanta Center
Wed 05:25:32 PM 34.9858 -80.8344 10° North 370 426 37,000  Level Atlanta Center
Wed 05:27:32 PM 35.1933 -80.7958 North 370 426 37,000  Level Atlanta Center
Wed 05:28:32 PM 35.2953 -80.7767 North 370 426 37,000  Level Atlanta Center
Wed 05:31:32 PM 35.6086 -80.7206 North 370 426 37,000  Level Atlanta Center
Wed 05:32:32 PM 35.7147 -80.7011 North 370 426 37,000  Level Atlanta Center
Wed 05:33:32 PM 35.8183 -80.6789 10° North 375 432 37,000  Level Atlanta Center
Wed 05:35:32 PM 36.0300 -80.6419 North 375 432 37,000  Level Atlanta Center
Wed 05:36:32 PM 36.1358 -80.6219 North 375 432 37,000  Level Atlanta Center
Wed 05:37:32 PM 36.2375 -80.6047 North 375 432 37,000  Level Atlanta Center
Wed 05:38:32 PM 36.3414 -80.5850 North 370 426 37,000  Level Atlanta Center
Wed 05:40:32 PM 36.5364 -80.5481 10° North 370 426 37,000  Level Atlanta Center
Wed 05:41:32 PM 36.6378 -80.5281 North 370 426 37,000  Level Atlanta Center
Wed 05:43:18 PM 36.8233 -80.4961 North 372 428 37,000  Level Washington Center
Wed 05:44:19 PM 36.9389 -80.4747 North 372 428 37,000  Level Washington Center
Wed 05:46:20 PM 37.1472 -80.4358 North 372 428 37,000  Level Washington Center
Wed 05:47:18 PM 37.2503 -80.4164 North 372 428 37,000  Level Washington Center
Wed 05:48:19 PM 37.3428 -80.3986 North 372 428 37,000  Level Washington Center
Wed 05:51:18 PM 37.6558 -80.3397 11° North 372 428 37,000  Level Washington Center
Wed 05:53:20 PM 37.8722 -80.2983 North 372 428 37,000  Level Washington Center
Wed 05:55:18 PM 38.0761 -80.2583 North 372 428 37,000  Level Washington Center
Wed 05:56:52 PM 38.2242 -80.2239 10° North 412 474 37,000  Level Cleveland Center
Wed 05:58:20 PM 38.3725 -80.2000 North 372 428 37,000  Level Washington Center
Wed 05:59:20 PM 38.4756 -80.1800 North 367 422 37,000  Level Washington Center
Wed 06:01:19 PM 38.6897 -80.1400 North 372 428 37,000  Level Washington Center
Wed 06:03:05 PM 38.8531 -80.0983 11° North 369 425 37,000  Level Cleveland Center
Wed 06:04:07 PM 38.9547 -80.0781 North 369 425 37,000  Level Cleveland Center
Wed 06:06:11 PM 39.1775 -80.0339 North 369 425 37,000  Level Cleveland Center
Wed 06:07:13 PM 39.2783 -80.0136 North 369 425 37,000  Level Cleveland Center
Wed 06:08:15 PM 39.3797 -79.9944 North 369 425 37,000  Level Cleveland Center
Wed 06:10:19 PM 39.5800 -79.9517 North 369 425 37,000  Level Cleveland Center
Wed 06:12:24 PM 39.8036 -79.9056 North 369 425 37,000  Level Cleveland Center
Wed 06:13:26 PM 39.9019 -79.8847 North 368 423 37,000  Level Cleveland Center
Wed 06:14:28 PM 40.0033 -79.8644 North 369 425 37,000  Level Cleveland Center
Wed 06:15:30 PM 40.1053 -79.8436 North 369 425 37,000 -48 Level Cleveland Center
Wed 06:16:32 PM 40.2272 -79.8186 North 369 425 36,900 -516 Descending Cleveland Center
Wed 06:18:36 PM 40.4369 -79.7750 North 387 445 35,400 -710 Descending Cleveland Center
Wed 06:19:38 PM 40.5372 -79.7533 North 375 432 34,700 -919 Descending Cleveland Center
Wed 06:20:40 PM 40.6583 -79.7272 North 370 426 33,500 -871 Descending Cleveland Center
Wed 06:21:42 PM 40.7622 -79.7058 North 376 433 32,900 -1,632 Descending Cleveland Center
Wed 06:22:45 PM 40.8642 -79.6847 North 376 433 30,100 -2,182 Descending Cleveland Center
Wed 06:24:00 PM 40.9810 -79.6538 11° North  Level FlightAware Approximate
Wed 06:24:49 PM 41.0597 -79.6419 11° North 352 405 26,100  Level Cleveland Center
Wed 06:25:51 PM 41.1722 -79.6189 North 346 398 25,100 -581 Descending Cleveland Center
Wed 06:27:55 PM 41.3561 -79.5792 North 339 390 24,300 -419 Descending Cleveland Center
Wed 06:28:57 PM 41.4539 -79.5575 North 338 389 23,800 -532 Descending Cleveland Center
Wed 06:29:59 PM 41.5450 -79.5372 North 338 389 23,200 -629 Descending Cleveland Center
Wed 06:31:01 PM 41.6353 -79.5175 North 331 381 22,500 -581 Descending Cleveland Center
Wed 06:32:03 PM 41.7244 -79.4989 North 330 380 22,000 -432 Descending Cleveland Center
Wed 06:33:06 PM 41.8306 -79.4758 North 324 373 21,600 -432 Descending Cleveland Center
Wed 06:34:08 PM 41.9178 -79.4561 10° North 321 369 21,100 -387 Descending Cleveland Center
Wed 06:35:10 PM 42.0047 -79.4375 North 320 368 20,800 -339 Descending Cleveland Center
Wed 06:36:12 PM 42.0906 -79.4181 10° North 316 364 20,400 -435 Descending Cleveland Center
Wed 06:37:14 PM 42.1769 -79.3994 North 316 364 19,900 -968 Descending Cleveland Center
Wed 06:39:18 PM 42.3636 -79.3586 North 309 356 17,400 -1,290 Descending Cleveland Center
Wed 06:40:20 PM 42.4447 -79.3411 North 299 344 15,900 -1,500 Descending Cleveland Center
Wed 06:41:22 PM 42.5183 -79.3239 10° North 294 338 14,300 -1,581 Descending Cleveland Center
Wed 06:43:26 PM 42.6892 -79.2850 North 285 328 11,000 -1,548 Descending Cleveland Center
Wed 06:45:34 PM 42.8500 -79.2500 North 273 314 7,800 -1,476 Descending Buffalo TRACON
Wed 06:46:33 PM 42.9233 -79.2306 11° North 272 313 6,400 -1,438 Descending Cleveland Center
Wed 06:47:35 PM 42.9931 -79.2028 16° North 253 291 4,900 -1,839 Descending Cleveland Center
Wed 06:48:37 PM 43.0600 -79.1761 16° North 257 296 2,600 -1,403 Descending Cleveland Center
Wed 06:49:39 PM 43.1306 -79.1506 15° North 255 293 2,000 -330 Descending Cleveland Center
Wed 06:50:26 PM 43.1667 -79.1000 46° Northeast 220 253 2,000 -280 Level Toronto Center
Wed 06:51:26 PM 43.2000 -79.1000 360° North 160 184 1,500 -500 Descending Toronto Center

Login

Don't have an account? Register now (free) for customized features, flight alerts, and more!